createdAt,value
2023-01-15T00:02:52.086Z,73.27
2023-01-15T00:07:54.505Z,73.76
2023-01-15T00:12:56.672Z,71.62
2023-01-15T00:17:58.873Z,73.13
2023-01-15T00:23:01.147Z,71.37
2023-01-15T00:28:04.576Z,69.63
2023-01-15T00:33:06.768Z,69.88
2023-01-15T00:38:09.034Z,70.24
2023-01-15T00:43:11.749Z,69.01
2023-01-15T00:48:15.083Z,72.39
2023-01-15T00:53:17.396Z,71.07
2023-01-15T00:58:19.665Z,70.33
2023-01-15T01:03:23.737Z,70.45
2023-01-15T01:08:25.853Z,68.00
2023-01-15T01:13:27.984Z,67.81
2023-01-15T01:18:30.196Z,68.71
2023-01-15T01:23:32.699Z,68.48
2023-01-15T01:28:34.762Z,69.38
2023-01-15T01:33:36.933Z,68.63
2023-01-15T01:38:39.263Z,66.07
2023-01-15T01:43:52.668Z,65.16
2023-01-15T01:48:58.447Z,63.80
2023-01-15T01:54:00.725Z,63.58
2023-01-15T01:59:04.459Z,61.54
2023-01-15T02:04:08.219Z,63.73
2023-01-15T02:09:10.319Z,63.36
2023-01-15T02:14:25.149Z,62.16
2023-01-15T02:19:41.215Z,63.04
2023-01-15T02:24:59.639Z,63.64
2023-01-15T02:30:23.168Z,62.83
2023-01-15T02:35:40.276Z,63.70
2023-01-15T02:40:46.779Z,63.18
2023-01-15T02:45:50.732Z,62.06
2023-01-15T02:50:56.630Z,63.56
2023-01-15T02:56:03.526Z,61.59
2023-01-15T03:01:14.310Z,63.07
2023-01-15T03:06:36.863Z,63.33
2023-01-15T03:11:44.792Z,61.31
2023-01-15T03:16:57.188Z,60.47
2023-01-15T03:22:11.002Z,61.07
2023-01-15T03:27:14.039Z,61.20
2023-01-15T03:32:21.537Z,60.65
2023-01-15T03:37:25.669Z,60.55
2023-01-15T03:42:45.444Z,61.57
2023-01-15T03:48:11.705Z,61.51
2023-01-15T03:53:34.294Z,61.84
2023-01-15T03:58:57.906Z,61.51
2023-01-15T04:04:08.514Z,62.34
2023-01-15T04:09:12.461Z,60.77
2023-01-15T04:14:15.041Z,62.68
2023-01-15T04:19:24.707Z,63.74
2023-01-15T04:24:39.419Z,61.49
2023-01-15T04:29:41.543Z,62.85
2023-01-15T04:34:43.594Z,62.24
2023-01-15T04:39:47.052Z,61.16
2023-01-15T04:44:49.101Z,60.98
2023-01-15T04:49:51.359Z,60.77
2023-01-15T04:54:55.554Z,62.02
2023-01-15T04:59:58.426Z,61.05
2023-01-15T05:05:00.508Z,60.82
2023-01-15T05:10:02.602Z,62.81
2023-01-15T05:15:05.419Z,60.95
2023-01-15T05:20:08.532Z,62.04
2023-01-15T05:25:10.820Z,61.65
2023-01-15T05:30:14.437Z,62.85
2023-01-15T05:35:16.557Z,60.48
2023-01-15T05:40:18.746Z,61.14
2023-01-15T05:45:20.861Z,62.12
2023-01-15T05:50:22.959Z,62.13
2023-01-15T05:55:25.076Z,62.33
2023-01-15T06:00:28.777Z,62.92
2023-01-15T06:05:32.457Z,62.81
2023-01-15T06:10:34.569Z,61.35
2023-01-15T06:15:36.862Z,60.81
2023-01-15T06:20:40.534Z,61.59
2023-01-15T06:25:42.641Z,60.75
2023-01-15T06:30:44.889Z,60.61
2023-01-15T06:35:46.991Z,60.73
2023-01-15T06:40:49.078Z,62.06
2023-01-15T06:46:09.742Z,59.74
2023-01-15T06:51:15.379Z,61.71
2023-01-15T06:56:17.922Z,61.09
2023-01-15T07:01:20.315Z,60.62
2023-01-15T07:06:22.522Z,59.71
2023-01-15T07:11:24.885Z,60.74
2023-01-15T07:16:29.981Z,62.10
2023-01-15T07:21:32.062Z,60.72
2023-01-15T07:26:34.688Z,61.23
2023-01-15T07:31:37.623Z,61.68
2023-01-15T07:36:39.960Z,60.07
2023-01-15T07:42:00.983Z,61.09
2023-01-15T07:47:22.407Z,61.03
2023-01-15T07:52:24.926Z,61.80
2023-01-15T07:57:27.292Z,60.98
2023-01-15T08:02:30.371Z,60.02
2023-01-15T08:07:58.020Z,60.04
2023-01-15T08:13:18.855Z,60.89
2023-01-15T08:18:22.114Z,59.30
2023-01-15T08:23:24.225Z,60.97
2023-01-15T08:28:26.703Z,59.93
2023-01-15T08:33:28.880Z,59.36
2023-01-15T08:38:31.028Z,59.34
2023-01-15T08:43:33.385Z,58.23
2023-01-15T08:48:35.760Z,58.27
2023-01-15T08:53:38.534Z,56.83
2023-01-15T08:58:40.891Z,58.26
2023-01-15T09:03:43.856Z,57.79
2023-01-15T09:08:46.169Z,58.02
2023-01-15T09:13:51.145Z,58.88
2023-01-15T09:18:55.531Z,58.21
2023-01-15T09:23:57.885Z,57.25
2023-01-15T09:29:01.284Z,56.40
2023-01-15T09:34:03.851Z,58.54
2023-01-15T09:39:06.637Z,57.20
2023-01-15T09:44:12.435Z,55.28
2023-01-15T09:49:42.474Z,55.45
2023-01-15T09:55:02.535Z,55.55
2023-01-15T10:00:06.588Z,55.62
2023-01-15T10:05:18.824Z,55.75
2023-01-15T10:10:23.973Z,56.10
2023-01-15T10:15:40.869Z,57.00
2023-01-15T10:21:07.327Z,56.10
2023-01-15T10:26:18.240Z,56.12
2023-01-15T10:31:24.581Z,55.75
2023-01-15T10:36:59.155Z,55.82
2023-01-15T10:42:19.836Z,53.52
2023-01-15T10:47:29.275Z,53.63
2023-01-15T10:52:33.954Z,54.65
2023-01-15T10:57:50.977Z,54.98
2023-01-15T11:03:09.047Z,56.75
2023-01-15T11:14:13.618Z,52.29
2023-01-15T11:19:42.171Z,51.41
2023-01-15T11:24:50.334Z,51.55
2023-01-15T11:30:01.089Z,50.75
2023-01-15T11:35:16.444Z,51.35
2023-01-15T11:40:21.315Z,52.64
2023-01-15T11:45:43.196Z,53.10
2023-01-15T11:51:00.085Z,52.31
2023-01-15T11:56:08.832Z,50.65
2023-01-15T12:01:15.798Z,51.92
2023-01-15T12:06:19.832Z,50.04
2023-01-15T12:12:03.559Z,50.98
2023-01-15T12:17:36.656Z,50.76
2023-01-15T12:22:49.571Z,50.96
2023-01-15T12:28:16.623Z,51.72
2023-01-15T12:33:20.788Z,50.71
2023-01-15T12:38:49.143Z,50.61
2023-01-15T12:44:13.098Z,50.92
2023-01-15T12:49:31.733Z,52.28
2023-01-15T12:54:39.552Z,53.50
2023-01-15T12:59:48.423Z,50.94
2023-01-15T13:05:13.857Z,50.62
2023-01-15T13:10:19.381Z,51.41
2023-01-15T13:15:26.903Z,50.32
2023-01-15T13:20:41.130Z,51.80
2023-01-15T13:26:05.835Z,50.13
2023-01-15T13:31:20.131Z,52.02
2023-01-15T13:36:28.423Z,50.78
2023-01-15T13:41:51.070Z,53.31
2023-01-15T13:47:23.987Z,50.94
2023-01-15T13:52:32.916Z,52.22
2023-01-15T13:57:37.711Z,51.71
2023-01-15T14:02:41.330Z,52.49
2023-01-15T14:07:43.590Z,50.81
2023-01-15T14:12:48.641Z,52.62
2023-01-15T14:18:04.533Z,51.13
2023-01-15T14:23:31.754Z,52.36
2023-01-15T14:28:38.438Z,51.09
2023-01-15T14:34:10.872Z,52.59
2023-01-15T14:39:31.747Z,51.34
2023-01-15T14:44:37.283Z,51.80
2023-01-15T14:49:49.544Z,49.95
2023-01-15T14:54:53.235Z,52.00
2023-01-15T15:00:00.589Z,53.60
2023-01-15T15:05:03.820Z,52.56
2023-01-15T15:10:12.680Z,51.62
2023-01-15T15:15:27.038Z,51.58
2023-01-15T15:20:45.524Z,52.35
2023-01-15T15:25:57.583Z,50.72
2023-01-15T15:31:01.457Z,50.30
2023-01-15T15:36:04.079Z,51.72
2023-01-15T15:41:10.011Z,52.63
2023-01-15T15:46:45.384Z,51.92
2023-01-15T15:51:52.262Z,51.32
2023-01-15T15:57:13.790Z,50.95
2023-01-15T16:02:19.557Z,51.52
2023-01-15T16:07:28.174Z,52.22
2023-01-15T16:12:33.389Z,51.27
2023-01-15T16:17:36.545Z,52.41
2023-01-15T16:22:44.818Z,52.39
2023-01-15T16:27:47.221Z,52.76
2023-01-15T16:32:50.583Z,51.22
2023-01-15T16:37:55.294Z,51.49
2023-01-15T16:43:04.995Z,52.53
2023-01-15T16:48:30.926Z,52.18
2023-01-15T16:53:36.061Z,50.88
2023-01-15T16:58:39.669Z,52.11
2023-01-15T17:03:42.770Z,53.88
2023-01-15T17:08:48.379Z,50.97
2023-01-15T17:13:51.077Z,53.90
2023-01-15T17:18:54.304Z,51.77
2023-01-15T17:23:57.144Z,51.46
2023-01-15T17:28:59.599Z,54.18
2023-01-15T17:34:03.603Z,54.58
2023-01-15T17:39:05.823Z,52.16
2023-01-15T17:44:09.704Z,52.25
2023-01-15T17:49:12.076Z,53.00
2023-01-15T17:54:34.170Z,54.66
2023-01-15T17:59:54.614Z,54.06
2023-01-15T18:05:15.445Z,54.63
2023-01-15T18:10:21.055Z,53.47
2023-01-15T18:15:23.381Z,53.78
2023-01-15T18:20:25.490Z,54.44
2023-01-15T18:25:27.848Z,54.67
2023-01-15T18:30:30.236Z,54.43
2023-01-15T18:35:32.548Z,53.92
2023-01-15T18:40:34.852Z,52.83
2023-01-15T18:45:55.606Z,53.79
2023-01-15T18:50:59.031Z,55.15
2023-01-15T18:56:02.973Z,54.98
2023-01-15T19:01:08.918Z,52.87
2023-01-15T19:06:13.901Z,55.03
2023-01-15T19:11:15.992Z,55.90
2023-01-15T19:16:36.958Z,55.37
2023-01-15T19:21:39.256Z,56.82
2023-01-15T19:26:41.496Z,57.19
2023-01-15T19:31:43.638Z,56.86
2023-01-15T19:36:46.154Z,56.26
2023-01-15T19:42:07.022Z,56.17
2023-01-15T19:47:35.396Z,56.05
2023-01-15T19:52:38.034Z,55.35
2023-01-15T19:57:41.228Z,55.09
2023-01-15T20:02:44.861Z,54.86
2023-01-15T20:07:47.257Z,53.78
2023-01-15T20:13:09.085Z,52.39
2023-01-15T20:18:11.587Z,53.23
2023-01-15T20:23:14.521Z,52.73
2023-01-15T20:28:16.840Z,52.80
2023-01-15T20:33:18.901Z,52.93
2023-01-15T20:38:23.043Z,52.37
2023-01-15T20:43:43.713Z,53.50
2023-01-15T20:49:04.562Z,52.04
2023-01-15T20:54:07.056Z,52.86
2023-01-15T20:59:09.141Z,51.37
2023-01-15T21:04:13.808Z,52.06
2023-01-15T21:09:16.577Z,53.49
2023-01-15T21:14:18.647Z,54.79
2023-01-15T21:19:21.189Z,54.81
2023-01-15T21:24:23.552Z,56.04
2023-01-15T21:29:25.888Z,55.47
2023-01-15T21:34:28.075Z,55.50
2023-01-15T21:39:30.191Z,55.81
2023-01-15T21:44:36.073Z,56.67
2023-01-15T21:49:38.405Z,55.87
2023-01-15T21:54:41.215Z,56.44
2023-01-15T21:59:43.409Z,55.36
2023-01-15T22:04:45.908Z,56.98
2023-01-15T22:09:48.366Z,57.71
2023-01-15T22:14:50.698Z,59.54
2023-01-15T22:19:53.065Z,62.18
2023-01-15T22:24:55.136Z,63.50
2023-01-15T22:29:57.472Z,66.93
2023-01-15T22:34:59.560Z,64.34
2023-01-15T22:40:01.960Z,67.13
2023-01-15T22:45:04.366Z,67.72
2023-01-15T22:50:06.910Z,68.07
2023-01-15T22:55:09.639Z,69.18
2023-01-15T23:00:12.105Z,68.62
2023-01-15T23:05:14.408Z,68.57
2023-01-15T23:10:16.910Z,67.28
2023-01-15T23:15:19.098Z,66.39
2023-01-15T23:20:21.457Z,66.89
2023-01-15T23:25:23.604Z,65.45
2023-01-15T23:30:25.718Z,65.35
2023-01-15T23:35:27.967Z,64.85
2023-01-15T23:40:30.219Z,64.88
2023-01-15T23:45:54.054Z,64.17
2023-01-15T23:50:56.097Z,63.25
2023-01-15T23:55:59.719Z,65.18
